OOCL California — VRWC8 — position and weather

sailwx.info

Track history (hours):
 
Tides and Currents Weather Stations Pressure Air Temp Water Temp Dewpoint Dewpoint Depression Visibility Wind Speed Wind Dir Waves Ship Positions

OOCL California

Last reported at 2015-Mar-28 19:30 UTC. Time now 2015-Mar-28 23:57 UTC.
Position N 30°51' E 122°45'.

Length 276 m; beam 40 m; draft 14 m.

Type: Cargo ship. MMSI: 477704000.

Date/timePositionNaut miles runAvg speedWind from/ knotsBaromVisibWave heightAir tempDewpointWater temp
2015-Mar-28 19:30N 30°51' E 122°45'0 0.0
2015-Mar-28 18:33N 30°51' E 122°45'0 0.0
2015-Mar-28 17:09N 30°51' E 122°45'0 0.0
2015-Mar-28 16:24N 30°51' E 122°45'0 0.2
2015-Mar-28 15:24N 30°51' E 122°45'0 0.2
2015-Mar-28 14:30N 30°51' E 122°45'0 0.1
2015-Mar-28 13:24N 30°51' E 122°45'0 0.1
2015-Mar-28 12:33N 30°51' E 122°45'0 0.1
2015-Mar-28 11:24N 30°51' E 122°45'9 0.9
2015-Mar-28 01:30N 30°53' E 122°36'6 4.6
2015-Mar-28 00:17N 30°49' E 122°31'0 0.0
2015-Mar-27 23:05N 30°49' E 122°31'0 0.1
2015-Mar-27 20:29N 30°49' E 122°31'0 0.0
2015-Mar-27 19:29N 30°49' E 122°31'0 0.0
2015-Mar-27 18:29N 30°49' E 122°31'0 0.0
2015-Mar-27 15:23N 30°49' E 122°31'0 0.1
2015-Mar-27 14:29N 30°49' E 122°31'0 0.1
2015-Mar-27 13:11N 30°49' E 122°31'0 0.0
2015-Mar-27 12:32N 30°49' E 122°31'0 0.1
2015-Mar-27 11:26N 30°49' E 122°31'0 0.0
2015-Mar-27 10:26N 30°49' E 122°31'  
2015-Mar-25 01:32N 30°49' E 122°31'0 0.1
2015-Mar-25 00:23N 30°49' E 122°31'0 0.1
2015-Mar-24 23:29N 30°49' E 122°31'0 0.0
2015-Mar-24 22:32N 30°49' E 122°31'0 0.0
2015-Mar-24 21:29N 30°49' E 122°31'0 0.1
2015-Mar-24 20:32N 30°49' E 122°31'0 0.1
2015-Mar-24 19:32N 30°49' E 122°31'0 0.1
2015-Mar-24 15:08N 30°49' E 122°31'0 0.0
2015-Mar-24 14:32N 30°49' E 122°31'0 0.1
2015-Mar-24 13:32N 30°49' E 122°31'0 0.1
2015-Mar-24 12:11N 30°49' E 122°31'0 0.1
2015-Mar-24 11:29N 30°49' E 122°31'0 0.1
2015-Mar-24 10:32N 30°49' E 122°31'0 0.1
2015-Mar-24 09:32N 30°49' E 122°31'0 0.0
2015-Mar-24 08:32N 30°49' E 122°31'0 0.3
2015-Mar-24 07:32N 30°49' E 122°31'0 0.0
2015-Mar-24 02:32N 30°49' E 122°31'0 0.0
2015-Mar-24 01:29N 30°49' E 122°31'0 0.1
2015-Mar-24 00:32N 30°49' E 122°31'0 0.1
2015-Mar-23 23:32N 30°49' E 122°31'0 0.1
2015-Mar-23 22:29N 30°49' E 122°31'0 0.0
2015-Mar-23 21:29N 30°49' E 122°31'0 0.1
2015-Mar-23 20:32N 30°49' E 122°31'0 0.1
2015-Mar-23 19:32N 30°49' E 122°31'0 0.0
2015-Mar-23 14:14N 30°49' E 122°31'0 0.0
2015-Mar-23 13:32N 30°49' E 122°31'0 0.1
2015-Mar-23 12:32N 30°49' E 122°31'0 0.1
2015-Mar-23 11:32N 30°49' E 122°31'0 0.2
2015-Mar-23 10:32N 30°49' E 122°31'0 0.0
2015-Mar-23 09:32N 30°49' E 122°31'0 0.0
2015-Mar-23 08:32N 30°49' E 122°31'0 0.1
2015-Mar-23 07:32N 30°49' E 122°31'0 0.1
2015-Mar-23 04:26N 30°49' E 122°31'0 0.0
2015-Mar-23 02:26N 30°49' E 122°31'0 0.0
2015-Mar-23 01:32N 30°49' E 122°31'0 0.1
2015-Mar-23 00:32N 30°49' E 122°31'0 0.1
2015-Mar-22 23:20N 30°49' E 122°31'0 0.1
2015-Mar-22 22:23N 30°49' E 122°31'0 0.0
2015-Mar-22 21:26N 30°49' E 122°31'0 0.1
2015-Mar-22 20:32N 30°49' E 122°31'0 0.0
2015-Mar-22 19:29N 30°49' E 122°31'0 0.2
2015-Mar-22 18:32N 30°49' E 122°31'0 0.1
2015-Mar-22 16:05N 30°49' E 122°31'0 0.1
2015-Mar-22 15:32N 30°49' E 122°31'0 0.0
2015-Mar-22 14:29N 30°49' E 122°31'0 0.0
2015-Mar-22 13:32N 30°49' E 122°31'0 0.1
2015-Mar-22 12:29N 30°49' E 122°31'0 0.1
2015-Mar-22 11:23N 30°49' E 122°31'0 0.1
2015-Mar-22 10:32N 30°49' E 122°31'0 0.1
2015-Mar-22 09:32N 30°49' E 122°31'0 0.0
2015-Mar-22 08:33N 30°49' E 122°31'0 0.0
2015-Mar-22 07:33N 30°49' E 122°31'0 0.0
2015-Mar-22 06:33N 30°49' E 122°31'2 1.6
2015-Mar-22 05:33N 30°51' E 122°31'8 8.5
2015-Mar-22 04:33N 30°54' E 122°40'1010.5
2015-Mar-22 03:34N 30°58' E 122°52'1010.2
2015-Mar-22 02:32N 31°06' E 122°60'1110.8
2015-Mar-22 01:33N 31°14' E 123°08'1110.6
2015-Mar-22 00:33N 31°15' E 123°20'1111.2
2015-Mar-21 23:33N 31°21' E 123°32'1211.7
2015-Mar-21 22:34N 31°24' E 123°44'1111.1
2015-Mar-21 21:33N 31°29' E 123°56'10 9.6
2015-Mar-21 20:33N 31°33' E 124°07'25 8.5
2015-Mar-21 17:34N 31°42' E 124°34'  
Track history (hours):
 
Tides and Currents Weather Stations Pressure Air Temp Water Temp Dewpoint Dewpoint Depression Visibility Wind Speed Wind Dir Waves Ship Positions

OOCL California

Last reported at 2015-Mar-28 19:30 UTC. Time now 2015-Mar-28 23:58 UTC.
Position N 30°51' E 122°45'.

Length 276 m; beam 40 m; draft 14 m.

Type: Cargo ship. MMSI: 477704000.

Date/timePositionNaut miles runAvg speedWind from/ knotsBaromVisibWave heightAir tempDewpointWater temp
2015-Mar-28 19:30N 30°51' E 122°45'0 0.0
2015-Mar-28 18:33N 30°51' E 122°45'0 0.0
2015-Mar-28 17:09N 30°51' E 122°45'0 0.0
2015-Mar-28 16:24N 30°51' E 122°45'0 0.2
2015-Mar-28 15:24N 30°51' E 122°45'0 0.2
2015-Mar-28 14:30N 30°51' E 122°45'0 0.1
2015-Mar-28 13:24N 30°51' E 122°45'0 0.1
2015-Mar-28 12:33N 30°51' E 122°45'0 0.1
2015-Mar-28 11:24N 30°51' E 122°45'9 0.9
2015-Mar-28 01:30N 30°53' E 122°36'6 4.6
2015-Mar-28 00:17N 30°49' E 122°31'0 0.0
2015-Mar-27 23:05N 30°49' E 122°31'0 0.1
2015-Mar-27 20:29N 30°49' E 122°31'0 0.0
2015-Mar-27 19:29N 30°49' E 122°31'0 0.0
2015-Mar-27 18:29N 30°49' E 122°31'0 0.0
2015-Mar-27 15:23N 30°49' E 122°31'0 0.1
2015-Mar-27 14:29N 30°49' E 122°31'0 0.1
2015-Mar-27 13:11N 30°49' E 122°31'0 0.0
2015-Mar-27 12:32N 30°49' E 122°31'0 0.1
2015-Mar-27 11:26N 30°49' E 122°31'0 0.0
2015-Mar-27 10:26N 30°49' E 122°31'  
2015-Mar-25 01:32N 30°49' E 122°31'0 0.1
2015-Mar-25 00:23N 30°49' E 122°31'0 0.1
2015-Mar-24 23:29N 30°49' E 122°31'0 0.0
2015-Mar-24 22:32N 30°49' E 122°31'0 0.0
2015-Mar-24 21:29N 30°49' E 122°31'0 0.1
2015-Mar-24 20:32N 30°49' E 122°31'0 0.1
2015-Mar-24 19:32N 30°49' E 122°31'0 0.1
2015-Mar-24 15:08N 30°49' E 122°31'0 0.0
2015-Mar-24 14:32N 30°49' E 122°31'0 0.1
2015-Mar-24 13:32N 30°49' E 122°31'0 0.1
2015-Mar-24 12:11N 30°49' E 122°31'0 0.1
2015-Mar-24 11:29N 30°49' E 122°31'0 0.1
2015-Mar-24 10:32N 30°49' E 122°31'0 0.1
2015-Mar-24 09:32N 30°49' E 122°31'0 0.0
2015-Mar-24 08:32N 30°49' E 122°31'0 0.3
2015-Mar-24 07:32N 30°49' E 122°31'0 0.0
2015-Mar-24 02:32N 30°49' E 122°31'0 0.0
2015-Mar-24 01:29N 30°49' E 122°31'0 0.1
2015-Mar-24 00:32N 30°49' E 122°31'0 0.1
2015-Mar-23 23:32N 30°49' E 122°31'0 0.1
2015-Mar-23 22:29N 30°49' E 122°31'0 0.0
2015-Mar-23 21:29N 30°49' E 122°31'0 0.1
2015-Mar-23 20:32N 30°49' E 122°31'0 0.1
2015-Mar-23 19:32N 30°49' E 122°31'0 0.0
2015-Mar-23 14:14N 30°49' E 122°31'0 0.0
2015-Mar-23 13:32N 30°49' E 122°31'0 0.1
2015-Mar-23 12:32N 30°49' E 122°31'0 0.1
2015-Mar-23 11:32N 30°49' E 122°31'0 0.2
2015-Mar-23 10:32N 30°49' E 122°31'0 0.0
2015-Mar-23 09:32N 30°49' E 122°31'0 0.0
2015-Mar-23 08:32N 30°49' E 122°31'0 0.1
2015-Mar-23 07:32N 30°49' E 122°31'0 0.1
2015-Mar-23 04:26N 30°49' E 122°31'0 0.0
2015-Mar-23 02:26N 30°49' E 122°31'0 0.0
2015-Mar-23 01:32N 30°49' E 122°31'0 0.1
2015-Mar-23 00:32N 30°49' E 122°31'0 0.1
2015-Mar-22 23:20N 30°49' E 122°31'0 0.1
2015-Mar-22 22:23N 30°49' E 122°31'0 0.0
2015-Mar-22 21:26N 30°49' E 122°31'0 0.1
2015-Mar-22 20:32N 30°49' E 122°31'0 0.0
2015-Mar-22 19:29N 30°49' E 122°31'0 0.2
2015-Mar-22 18:32N 30°49' E 122°31'0 0.1
2015-Mar-22 16:05N 30°49' E 122°31'0 0.1
2015-Mar-22 15:32N 30°49' E 122°31'0 0.0
2015-Mar-22 14:29N 30°49' E 122°31'0 0.0
2015-Mar-22 13:32N 30°49' E 122°31'0 0.1
2015-Mar-22 12:29N 30°49' E 122°31'0 0.1
2015-Mar-22 11:23N 30°49' E 122°31'0 0.1
2015-Mar-22 10:32N 30°49' E 122°31'0 0.1
2015-Mar-22 09:32N 30°49' E 122°31'0 0.0
2015-Mar-22 08:33N 30°49' E 122°31'0 0.0
2015-Mar-22 07:33N 30°49' E 122°31'0 0.0
2015-Mar-22 06:33N 30°49' E 122°31'2 1.6
2015-Mar-22 05:33N 30°51' E 122°31'8 8.5
2015-Mar-22 04:33N 30°54' E 122°40'1010.5
2015-Mar-22 03:34N 30°58' E 122°52'1010.2
2015-Mar-22 02:32N 31°06' E 122°60'1110.8
2015-Mar-22 01:33N 31°14' E 123°08'1110.6
2015-Mar-22 00:33N 31°15' E 123°20'1111.2
2015-Mar-21 23:33N 31°21' E 123°32'1211.7
2015-Mar-21 22:34N 31°24' E 123°44'1111.1
2015-Mar-21 21:33N 31°29' E 123°56'10 9.6
2015-Mar-21 20:33N 31°33' E 124°07'25 8.5
2015-Mar-21 17:34N 31°42' E 124°34'  

Dump ship's entire track history